< < Back
Terminal Aerodrome Forecast


Current Version              Previous Versions:   1  2  3  4  5  6  7  8  9  

Terminal Aerodrome Forecast

295
FTUS44 KBMX 262300
TAFMGM
TAF
KMGM 262326Z 2700/2724 19006KT P6SM SKC
     FM270600 27009KT P6SM SCT120
     FM271400 32012G20KT P6SM SCT040=



Latest METAR

287
SAUS80 KWBC 270800 RRB
MTRMGM
METAR KMGM 270753Z AUTO 29005KT 10SM CLR 07/01 A3021 RMK AO2 SLP231
T00670011


USA.gov is the U.S. government's official web portal to all federal, state and local government web resources and services.